createdAt,value
2023-04-09T00:02:16.779Z,11.20
2023-04-09T00:04:44.702Z,11.70
2023-04-09T00:07:12.571Z,11.33
2023-04-09T00:09:40.422Z,10.90
2023-04-09T00:12:09.652Z,11.00
2023-04-09T00:14:37.420Z,11.40
2023-04-09T00:17:05.191Z,11.73
2023-04-09T00:19:33.233Z,10.73
2023-04-09T00:22:00.969Z,11.40
2023-04-09T00:24:28.628Z,12.03
2023-04-09T00:26:56.302Z,11.30
2023-04-09T00:29:25.679Z,11.13
2023-04-09T00:31:53.597Z,11.70
2023-04-09T00:34:21.375Z,11.73
2023-04-09T00:36:49.152Z,10.70
2023-04-09T00:39:16.866Z,10.40
2023-04-09T00:41:44.549Z,10.87
2023-04-09T00:44:12.233Z,11.20
2023-04-09T00:46:41.637Z,11.57
2023-04-09T00:49:09.556Z,12.07
2023-04-09T00:51:38.730Z,11.57
2023-04-09T00:54:06.563Z,11.53
2023-04-09T00:56:34.607Z,11.60
2023-04-09T00:59:02.648Z,11.80
2023-04-09T01:01:30.532Z,13.00
2023-04-09T01:03:59.951Z,11.77
2023-04-09T01:06:34.621Z,11.10
2023-04-09T01:09:07.177Z,12.63
2023-04-09T01:11:43.408Z,10.77
2023-04-09T01:14:20.536Z,11.33
2023-04-09T01:16:53.811Z,11.17
2023-04-09T01:19:37.644Z,11.97
2023-04-09T01:22:11.442Z,12.87
2023-04-09T01:24:47.368Z,11.43
2023-04-09T01:27:23.949Z,11.37
2023-04-09T01:30:05.227Z,11.70
2023-04-09T01:32:35.405Z,10.87
2023-04-09T01:35:04.550Z,12.10
2023-04-09T01:37:33.086Z,11.73
2023-04-09T01:40:01.507Z,11.63
2023-04-09T01:42:30.236Z,11.43
2023-04-09T01:45:01.430Z,11.80
2023-04-09T01:47:29.616Z,12.00
2023-04-09T01:49:57.566Z,11.30
2023-04-09T01:52:25.624Z,11.17
2023-04-09T01:54:53.446Z,12.90
2023-04-09T01:57:21.208Z,10.77
2023-04-09T01:59:49.001Z,10.13
2023-04-09T02:02:22.295Z,11.00
2023-04-09T02:04:55.191Z,11.90
2023-04-09T02:07:30.941Z,11.03
2023-04-09T02:10:01.908Z,11.30
2023-04-09T02:12:34.298Z,12.23
2023-04-09T02:15:03.762Z,11.63
2023-04-09T02:17:33.311Z,11.93
2023-04-09T02:20:01.053Z,11.73
2023-04-09T02:22:29.979Z,12.03
2023-04-09T02:24:57.703Z,11.33
2023-04-09T02:27:25.421Z,11.93
2023-04-09T02:29:53.142Z,11.90
2023-04-09T02:32:20.864Z,11.77
2023-04-09T02:34:50.217Z,12.57
2023-04-09T02:37:18.285Z,11.83
2023-04-09T02:39:45.992Z,12.10
2023-04-09T02:42:13.771Z,12.37
2023-04-09T02:44:41.482Z,12.53
2023-04-09T02:47:09.421Z,12.23
2023-04-09T02:49:38.380Z,12.60
2023-04-09T02:52:08.033Z,12.07
2023-04-09T02:54:35.731Z,12.70
2023-04-09T02:57:03.459Z,11.97
2023-04-09T02:59:32.907Z,11.00
2023-04-09T03:02:00.683Z,11.87
2023-04-09T03:04:28.477Z,12.20
2023-04-09T03:06:56.173Z,11.90
2023-04-09T03:09:25.265Z,11.47
2023-04-09T03:11:52.984Z,11.87
2023-04-09T03:14:20.646Z,11.20
2023-04-09T03:16:48.356Z,12.43
2023-04-09T03:19:16.564Z,12.07
2023-04-09T03:21:44.297Z,11.73
2023-04-09T03:24:12.043Z,12.43
2023-04-09T03:26:42.365Z,11.30
2023-04-09T03:29:11.251Z,11.97
2023-04-09T03:31:39.547Z,12.43
2023-04-09T03:34:08.352Z,12.03
2023-04-09T03:36:36.094Z,11.87
2023-04-09T03:39:05.413Z,11.83
2023-04-09T03:41:38.863Z,13.60
2023-04-09T03:44:12.330Z,12.70
2023-04-09T03:47:00.397Z,14.07
2023-04-09T03:49:29.421Z,13.43
2023-04-09T03:52:03.593Z,12.80
2023-04-09T03:54:38.045Z,12.43
2023-04-09T03:57:11.872Z,13.60
2023-04-09T03:59:43.365Z,12.87
2023-04-09T04:02:12.282Z,12.53
2023-04-09T04:04:45.563Z,12.70
2023-04-09T04:07:13.406Z,11.13
2023-04-09T04:09:47.659Z,11.60
2023-04-09T04:12:18.217Z,12.03
2023-04-09T04:15:06.661Z,13.00
2023-04-09T04:17:39.458Z,12.27
2023-04-09T04:20:15.058Z,12.67
2023-04-09T04:22:54.745Z,12.57
2023-04-09T04:25:24.122Z,13.00
2023-04-09T04:27:52.149Z,12.27
2023-04-09T04:30:24.645Z,13.87
2023-04-09T04:33:00.476Z,13.17
2023-04-09T04:35:32.010Z,13.80
2023-04-09T04:38:02.779Z,13.37
2023-04-09T04:40:32.334Z,13.43
2023-04-09T04:43:02.562Z,12.90
2023-04-09T04:45:31.790Z,15.17
2023-04-09T04:48:07.835Z,15.03
2023-04-09T04:50:35.547Z,13.53
2023-04-09T04:53:07.601Z,14.23
2023-04-09T04:55:43.898Z,14.23
2023-04-09T04:58:15.241Z,13.43
2023-04-09T05:00:51.846Z,13.83
2023-04-09T05:03:19.685Z,14.07
2023-04-09T05:06:13.746Z,13.37
2023-04-09T05:08:44.633Z,13.77
2023-04-09T05:11:12.985Z,13.00
2023-04-09T05:13:42.182Z,17.50
2023-04-09T05:16:18.656Z,17.57
2023-04-09T05:18:51.395Z,19.63
2023-04-09T05:21:19.394Z,17.33
2023-04-09T05:23:48.403Z,17.37
2023-04-09T05:26:16.649Z,18.13
2023-04-09T05:28:52.735Z,16.90
2023-04-09T05:31:24.428Z,16.87
2023-04-09T05:34:04.173Z,18.80
2023-04-09T05:36:42.319Z,18.57
2023-04-09T05:39:10.895Z,15.97
2023-04-09T05:41:38.794Z,18.27
2023-04-09T05:44:25.453Z,19.20
2023-04-09T05:47:00.788Z,18.93
2023-04-09T05:49:34.319Z,19.03
2023-04-09T05:52:04.306Z,19.03
2023-04-09T05:54:34.199Z,19.53
2023-04-09T05:57:02.348Z,19.60
2023-04-09T05:59:32.345Z,19.10
2023-04-09T06:02:02.668Z,19.10
2023-04-09T06:04:30.365Z,20.57
2023-04-09T06:07:00.192Z,21.10
2023-04-09T06:09:28.286Z,20.80
2023-04-09T06:11:56.020Z,21.27
2023-04-09T06:14:23.724Z,22.50
2023-04-09T06:16:51.425Z,20.00
2023-04-09T06:19:20.620Z,19.73
2023-04-09T06:21:48.341Z,21.33
2023-04-09T06:24:16.145Z,19.07
2023-04-09T06:26:44.056Z,19.30
2023-04-09T06:29:11.768Z,19.50
2023-04-09T06:31:39.572Z,18.97
2023-04-09T06:34:07.338Z,22.10
2023-04-09T06:36:37.715Z,19.73
2023-04-09T06:39:05.765Z,20.30
2023-04-09T06:41:33.629Z,22.43
2023-04-09T06:44:05.288Z,19.33
2023-04-09T06:46:33.040Z,19.90
2023-04-09T06:49:00.768Z,18.73
2023-04-09T06:51:28.455Z,19.50
2023-04-09T06:53:57.589Z,19.90
2023-04-09T06:56:25.331Z,20.23
2023-04-09T06:58:53.078Z,18.80
2023-04-09T07:01:21.222Z,19.10
2023-04-09T07:03:49.176Z,18.53
2023-04-09T07:06:16.950Z,19.47
2023-04-09T07:08:44.680Z,17.77
2023-04-09T07:11:13.787Z,18.80
2023-04-09T07:13:41.499Z,19.77
2023-04-09T07:16:09.178Z,19.43
2023-04-09T07:18:36.896Z,18.60
2023-04-09T07:21:05.286Z,17.97
2023-04-09T07:23:36.113Z,15.50
2023-04-09T07:26:04.899Z,16.87
2023-04-09T07:28:34.097Z,15.47
2023-04-09T07:31:02.876Z,15.80
2023-04-09T07:33:30.829Z,15.60
2023-04-09T07:35:58.641Z,16.43
2023-04-09T07:38:26.391Z,15.77
2023-04-09T07:40:54.207Z,14.27
2023-04-09T07:43:22.623Z,15.37
2023-04-09T07:45:52.438Z,14.87
2023-04-09T07:48:20.440Z,16.10
2023-04-09T07:50:48.156Z,14.50
2023-04-09T07:53:16.479Z,14.23
2023-04-09T07:55:44.131Z,14.20
2023-04-09T07:58:12.146Z,13.57
2023-04-09T08:00:39.824Z,12.40
2023-04-09T08:03:09.802Z,13.10
2023-04-09T08:05:38.119Z,12.60
2023-04-09T08:08:06.397Z,13.37
2023-04-09T08:10:34.080Z,11.23
2023-04-09T08:13:01.766Z,11.70
2023-04-09T08:15:29.490Z,12.77
2023-04-09T08:17:58.108Z,12.37
2023-04-09T08:20:27.800Z,11.67
2023-04-09T08:22:55.588Z,10.80
2023-04-09T08:25:23.392Z,11.13
2023-04-09T08:27:51.492Z,11.03
2023-04-09T08:30:19.238Z,9.93
2023-04-09T08:32:47.165Z,10.07
2023-04-09T08:35:14.986Z,10.07
2023-04-09T08:37:44.847Z,9.60
2023-04-09T08:40:13.004Z,11.90
2023-04-09T08:42:45.799Z,11.70
2023-04-09T08:45:14.148Z,11.13
2023-04-09T08:47:44.618Z,10.60
2023-04-09T08:50:12.397Z,10.40
2023-04-09T08:52:41.281Z,9.33
2023-04-09T08:55:13.089Z,9.10
2023-04-09T08:57:41.958Z,9.70
2023-04-09T09:00:10.360Z,10.53
2023-04-09T09:02:38.619Z,10.20
2023-04-09T09:05:08.126Z,10.33
2023-04-09T09:07:35.868Z,9.87
2023-04-09T09:10:04.473Z,10.27
2023-04-09T09:12:36.028Z,10.00
2023-04-09T09:15:04.340Z,9.23
2023-04-09T09:17:32.139Z,8.83
2023-04-09T09:20:00.367Z,9.00
2023-04-09T09:22:28.450Z,9.77
2023-04-09T09:24:57.353Z,9.57
2023-04-09T09:27:39.372Z,9.13
2023-04-09T09:30:08.716Z,8.83
2023-04-09T09:32:36.779Z,7.77
2023-04-09T09:35:06.004Z,8.00
2023-04-09T09:37:34.616Z,8.77
2023-04-09T09:40:02.503Z,8.90
2023-04-09T09:42:30.363Z,7.83
2023-04-09T09:45:00.406Z,7.90
2023-04-09T09:47:30.425Z,8.53
2023-04-09T09:49:58.131Z,8.47
2023-04-09T09:52:27.399Z,8.37
2023-04-09T09:54:57.063Z,9.63
2023-04-09T09:57:29.749Z,8.07
2023-04-09T10:00:05.717Z,8.33
2023-04-09T10:02:48.488Z,8.47
2023-04-09T10:05:16.782Z,8.83
2023-04-09T10:07:46.480Z,8.77
2023-04-09T10:10:14.334Z,8.87
2023-04-09T10:12:43.540Z,9.27
2023-04-09T10:15:13.140Z,8.73
2023-04-09T10:17:40.935Z,8.60
2023-04-09T10:20:15.551Z,8.70
2023-04-09T10:22:47.157Z,9.27
2023-04-09T10:25:15.508Z,8.50
2023-04-09T10:27:44.703Z,8.57
2023-04-09T10:30:32.990Z,8.33
2023-04-09T10:33:11.321Z,8.47
2023-04-09T10:35:39.349Z,8.50
2023-04-09T10:38:09.474Z,8.93
2023-04-09T10:40:41.488Z,9.07
2023-04-09T10:43:11.345Z,7.93
2023-04-09T10:45:43.592Z,8.17
2023-04-09T10:48:14.975Z,8.67
2023-04-09T10:50:45.084Z,8.10
2023-04-09T10:53:24.157Z,8.03
2023-04-09T10:55:52.999Z,9.17
2023-04-09T10:58:21.502Z,9.67
2023-04-09T11:00:51.631Z,9.33
2023-04-09T11:03:25.655Z,8.53
2023-04-09T11:05:56.606Z,9.10
2023-04-09T11:08:24.816Z,8.77
2023-04-09T11:10:56.703Z,8.00
2023-04-09T11:13:24.398Z,8.30
2023-04-09T11:15:53.841Z,8.73
2023-04-09T11:18:22.615Z,9.00
2023-04-09T11:20:50.478Z,9.50
2023-04-09T11:23:19.110Z,8.70
2023-04-09T11:25:50.705Z,8.60
2023-04-09T11:28:18.711Z,7.87
2023-04-09T11:30:47.810Z,8.40
2023-04-09T11:33:19.130Z,8.77
2023-04-09T11:35:47.909Z,8.80
2023-04-09T11:38:15.707Z,8.60
2023-04-09T11:40:48.547Z,8.03
2023-04-09T11:43:17.716Z,7.43
2023-04-09T11:45:48.008Z,7.57
2023-04-09T11:48:18.501Z,8.00
2023-04-09T11:50:47.322Z,7.80
2023-04-09T11:53:19.130Z,8.30
2023-04-09T11:55:49.494Z,7.80
2023-04-09T11:58:17.796Z,8.10
2023-04-09T12:00:46.369Z,8.27
2023-04-09T12:03:16.271Z,8.90
2023-04-09T12:05:51.184Z,8.63
2023-04-09T12:08:24.588Z,7.63
2023-04-09T12:10:53.809Z,7.63
2023-04-09T12:13:22.081Z,8.03
2023-04-09T12:15:51.338Z,7.40
2023-04-09T12:18:19.099Z,6.73
2023-04-09T12:20:49.604Z,7.77
2023-04-09T12:23:17.675Z,7.93
2023-04-09T12:25:46.920Z,7.40
2023-04-09T12:28:17.978Z,7.27
2023-04-09T12:30:46.333Z,7.23
2023-04-09T12:33:14.161Z,6.97
2023-04-09T12:35:42.037Z,7.80
2023-04-09T12:38:11.157Z,8.03
2023-04-09T12:40:39.318Z,7.20
2023-04-09T12:43:07.070Z,8.70
2023-04-09T12:45:34.793Z,7.93
2023-04-09T12:48:03.018Z,7.33
2023-04-09T12:50:30.772Z,9.10
2023-04-09T12:52:58.512Z,7.30
2023-04-09T12:55:27.878Z,7.53
2023-04-09T12:57:55.645Z,7.68
2023-04-09T13:00:23.384Z,6.85
2023-04-09T13:02:52.639Z,7.10
2023-04-09T13:05:20.689Z,6.78
2023-04-09T13:07:48.382Z,6.63
2023-04-09T13:10:16.207Z,7.53
2023-04-09T13:12:45.264Z,7.30
2023-04-09T13:15:12.973Z,7.50
2023-04-09T13:17:40.795Z,6.97
2023-04-09T13:20:09.797Z,7.23
2023-04-09T13:22:37.602Z,7.53
2023-04-09T13:25:05.841Z,7.07
2023-04-09T13:27:33.771Z,7.13
2023-04-09T13:30:02.855Z,7.27
2023-04-09T13:32:30.625Z,6.87
2023-04-09T13:34:58.741Z,7.47
2023-04-09T13:37:27.202Z,6.80
2023-04-09T13:39:54.956Z,6.50
2023-04-09T13:42:22.744Z,7.07
2023-04-09T13:44:50.588Z,7.07
2023-04-09T13:47:19.691Z,7.17
2023-04-09T13:49:47.400Z,6.47
2023-04-09T13:52:15.403Z,7.23
2023-04-09T13:54:43.077Z,6.50
2023-04-09T13:57:11.236Z,6.80
2023-04-09T13:59:39.084Z,7.10
2023-04-09T14:02:06.990Z,6.60
2023-04-09T14:04:36.145Z,6.73
2023-04-09T14:07:03.979Z,6.40
2023-04-09T14:09:31.901Z,6.40
2023-04-09T14:11:59.616Z,7.27
2023-04-09T14:14:27.548Z,6.50
2023-04-09T14:16:55.297Z,6.30
2023-04-09T14:19:24.015Z,7.53
2023-04-09T14:21:54.108Z,11.73
2023-04-09T14:24:23.136Z,7.20
2023-04-09T14:26:53.084Z,7.60
2023-04-09T14:29:21.970Z,7.27
2023-04-09T14:31:49.903Z,6.97
2023-04-09T14:34:17.730Z,7.77
2023-04-09T14:36:45.444Z,6.67
2023-04-09T14:39:14.546Z,7.27
2023-04-09T14:41:42.450Z,7.13
2023-04-09T14:44:10.252Z,6.53
2023-04-09T14:46:38.105Z,7.40
2023-04-09T14:49:05.859Z,6.90
2023-04-09T14:51:34.144Z,7.63
2023-04-09T14:54:02.541Z,7.63
2023-04-09T14:56:31.631Z,6.93
2023-04-09T14:58:59.883Z,7.67
2023-04-09T15:01:28.070Z,7.80
2023-04-09T15:03:56.233Z,7.73
2023-04-09T15:06:24.164Z,7.73
2023-04-09T15:08:52.185Z,7.10
2023-04-09T15:11:22.766Z,7.23
2023-04-09T15:13:52.497Z,7.47
2023-04-09T15:16:25.718Z,7.43
2023-04-09T15:18:56.041Z,8.20
2023-04-09T15:21:24.328Z,8.10
2023-04-09T15:23:52.548Z,7.87
2023-04-09T15:26:20.660Z,7.77
2023-04-09T15:28:48.784Z,8.37
2023-04-09T15:31:17.883Z,8.23
2023-04-09T15:33:46.929Z,8.17
2023-04-09T15:36:14.726Z,7.47
2023-04-09T15:38:42.441Z,8.50
2023-04-09T15:41:10.476Z,7.97
2023-04-09T15:43:38.204Z,8.17
2023-04-09T15:46:10.729Z,8.20
2023-04-09T15:48:39.902Z,8.03
2023-04-09T15:51:07.974Z,8.80
2023-04-09T15:53:35.815Z,7.47
2023-04-09T15:56:03.775Z,7.33
2023-04-09T15:58:31.513Z,7.30
2023-04-09T16:00:59.450Z,6.87
2023-04-09T16:03:27.748Z,9.17
2023-04-09T16:05:56.862Z,8.20
2023-04-09T16:08:24.597Z,7.87
2023-04-09T16:10:53.161Z,7.07
2023-04-09T16:13:20.858Z,6.83
2023-04-09T16:15:49.357Z,7.00
2023-04-09T16:18:17.154Z,7.07
2023-04-09T16:20:44.882Z,8.07
2023-04-09T16:23:13.964Z,7.93
2023-04-09T16:25:41.692Z,7.93
2023-04-09T16:28:09.643Z,7.93
2023-04-09T16:30:37.567Z,7.83
2023-04-09T16:33:05.350Z,7.90
2023-04-09T16:35:33.121Z,7.60
2023-04-09T16:38:00.840Z,8.77
2023-04-09T16:40:30.294Z,8.67
2023-04-09T16:42:58.070Z,8.37
2023-04-09T16:45:25.791Z,8.10
2023-04-09T16:47:54.551Z,8.13
2023-04-09T16:50:22.360Z,8.10
2023-04-09T16:52:50.382Z,8.33
2023-04-09T16:55:18.133Z,9.20
2023-04-09T16:57:47.252Z,8.87
2023-04-09T17:00:17.327Z,8.73
2023-04-09T17:02:45.838Z,10.20
2023-04-09T17:05:13.965Z,8.47
2023-04-09T17:07:43.071Z,9.33
2023-04-09T17:10:11.441Z,9.73
2023-04-09T17:12:39.734Z,8.97
2023-04-09T17:15:10.546Z,8.83
2023-04-09T17:17:38.398Z,8.33
2023-04-09T17:20:07.588Z,9.47
2023-04-09T17:22:36.192Z,9.37
2023-04-09T17:25:04.747Z,8.03
2023-04-09T17:27:32.503Z,8.57
2023-04-09T17:30:00.353Z,8.47
2023-04-09T17:32:29.606Z,8.13
2023-04-09T17:34:59.433Z,8.00
2023-04-09T17:37:29.230Z,7.97
2023-04-09T17:39:57.126Z,8.00
2023-04-09T17:42:24.943Z,7.87
2023-04-09T17:44:52.654Z,7.93
2023-04-09T17:47:20.631Z,8.03
2023-04-09T17:49:49.776Z,7.63
2023-04-09T17:52:17.476Z,7.40
2023-04-09T17:54:46.657Z,7.73
2023-04-09T17:57:15.461Z,7.63
2023-04-09T17:59:43.454Z,8.13
2023-04-09T18:02:11.542Z,7.70
2023-04-09T18:04:39.594Z,8.87
2023-04-09T18:07:08.882Z,11.20
2023-04-09T18:09:38.978Z,12.07
2023-04-09T18:12:06.811Z,10.03
2023-04-09T18:14:34.594Z,7.80
2023-04-09T18:17:02.399Z,7.93
2023-04-09T18:19:30.181Z,8.70
2023-04-09T18:21:58.052Z,8.50
2023-04-09T18:24:28.324Z,9.97
2023-04-09T18:26:57.353Z,9.87
2023-04-09T18:29:27.135Z,9.83
2023-04-09T18:31:55.695Z,9.60
2023-04-09T18:34:23.898Z,11.10
2023-04-09T18:36:51.813Z,8.70
2023-04-09T18:39:20.569Z,9.53
2023-04-09T18:41:50.004Z,9.43
2023-04-09T18:44:17.700Z,19.10
2023-04-09T18:46:45.491Z,14.00
2023-04-09T18:49:13.283Z,13.70
2023-04-09T18:51:41.066Z,10.30
2023-04-09T18:54:08.781Z,9.97
2023-04-09T18:56:36.505Z,8.07
2023-04-09T18:59:06.270Z,8.60
2023-04-09T19:01:34.180Z,9.30
2023-04-09T19:04:06.098Z,8.00
2023-04-09T19:06:35.977Z,10.80
2023-04-09T19:09:04.708Z,10.03
2023-04-09T19:11:32.437Z,8.40
2023-04-09T19:14:00.211Z,7.90
2023-04-09T19:16:29.518Z,8.20
2023-04-09T19:18:57.645Z,7.27
2023-04-09T19:21:25.411Z,7.30
2023-04-09T19:23:53.160Z,7.87
2023-04-09T19:26:22.081Z,8.57
2023-04-09T19:28:49.876Z,8.13
2023-04-09T19:31:17.683Z,7.10
2023-04-09T19:33:46.858Z,8.73
2023-04-09T19:36:14.599Z,8.40
2023-04-09T19:38:42.348Z,7.90
2023-04-09T19:41:10.411Z,7.77
2023-04-09T19:43:39.214Z,7.70
2023-04-09T19:46:08.423Z,9.20
2023-04-09T19:48:36.453Z,8.17
2023-04-09T19:51:06.082Z,8.40
2023-04-09T19:53:36.128Z,7.87
2023-04-09T19:56:03.920Z,7.53
2023-04-09T19:58:32.593Z,7.63
2023-04-09T20:01:00.472Z,8.47
2023-04-09T20:03:28.351Z,8.20
2023-04-09T20:05:56.259Z,8.07
2023-04-09T20:08:25.512Z,8.07
2023-04-09T20:10:53.256Z,7.93
2023-04-09T20:13:21.003Z,9.80
2023-04-09T20:15:49.850Z,9.50
2023-04-09T20:18:17.614Z,8.43
2023-04-09T20:20:45.540Z,8.97
2023-04-09T20:23:13.299Z,11.20
2023-04-09T20:25:42.368Z,8.70
2023-04-09T20:28:10.127Z,9.10
2023-04-09T20:30:37.895Z,8.20
2023-04-09T20:33:05.848Z,8.50
2023-04-09T20:35:35.283Z,9.00
2023-04-09T20:38:03.183Z,8.90
2023-04-09T20:40:32.012Z,8.13
2023-04-09T20:43:01.146Z,9.33
2023-04-09T20:45:28.852Z,9.27
2023-04-09T20:47:57.078Z,9.53
2023-04-09T20:50:24.915Z,9.73
2023-04-09T20:52:52.693Z,8.80
2023-04-09T20:55:20.732Z,10.57
2023-04-09T20:57:49.104Z,9.93
2023-04-09T21:00:19.776Z,10.73
2023-04-09T21:02:47.972Z,8.83
2023-04-09T21:05:23.497Z,9.53
2023-04-09T21:07:52.089Z,9.87
2023-04-09T21:10:20.060Z,8.77
2023-04-09T21:12:48.104Z,8.90
2023-04-09T21:15:16.097Z,8.87
2023-04-09T21:17:45.504Z,10.23
2023-04-09T21:20:15.048Z,8.90
2023-04-09T21:22:42.935Z,10.20
2023-04-09T21:25:12.122Z,9.87
2023-04-09T21:27:41.595Z,9.30
2023-04-09T21:30:10.458Z,9.70
2023-04-09T21:32:38.424Z,9.73
2023-04-09T21:35:08.481Z,8.67
2023-04-09T21:37:37.502Z,8.70
2023-04-09T21:40:06.065Z,9.80
2023-04-09T21:42:33.780Z,9.30
2023-04-09T21:45:02.323Z,9.67
2023-04-09T21:47:30.310Z,8.43
2023-04-09T21:49:58.565Z,9.60
2023-04-09T21:52:28.180Z,9.30
2023-04-09T21:54:55.934Z,9.87
2023-04-09T21:57:24.214Z,8.93
2023-04-09T21:59:52.205Z,10.50
2023-04-09T22:02:20.142Z,8.60
2023-04-09T22:04:48.111Z,10.40
2023-04-09T22:07:17.197Z,8.73
2023-04-09T22:09:46.525Z,8.77
2023-04-09T22:12:14.256Z,10.20
2023-04-09T22:14:42.055Z,9.50
2023-04-09T22:17:09.891Z,9.50
2023-04-09T22:19:38.844Z,9.43
2023-04-09T22:22:06.599Z,8.83
2023-04-09T22:24:34.332Z,9.67
2023-04-09T22:27:03.613Z,8.63
2023-04-09T22:29:31.861Z,9.20
2023-04-09T22:31:59.607Z,9.63
2023-04-09T22:34:27.599Z,9.73
2023-04-09T22:36:55.296Z,8.70
2023-04-09T22:39:23.109Z,9.17
2023-04-09T22:41:50.922Z,8.77
2023-04-09T22:44:20.096Z,9.57
2023-04-09T22:46:47.884Z,9.33
2023-04-09T22:49:15.910Z,9.30
2023-04-09T22:51:43.945Z,10.10
2023-04-09T22:54:11.678Z,11.53
2023-04-09T22:56:39.670Z,9.60
2023-04-09T22:59:07.499Z,9.20
2023-04-09T23:01:36.833Z,10.80
2023-04-09T23:04:05.052Z,10.93
2023-04-09T23:06:32.792Z,9.43
2023-04-09T23:09:00.884Z,9.07
2023-04-09T23:11:28.869Z,9.27
2023-04-09T23:13:56.580Z,10.07
2023-04-09T23:16:24.351Z,8.83
2023-04-09T23:18:53.590Z,9.97
2023-04-09T23:21:21.574Z,9.43
2023-04-09T23:23:49.293Z,10.93
2023-04-09T23:26:17.000Z,8.60
2023-04-09T23:28:44.724Z,9.67
2023-04-09T23:31:12.465Z,9.23
2023-04-09T23:33:40.334Z,9.77
2023-04-09T23:36:10.353Z,8.83
2023-04-09T23:38:40.134Z,10.27
2023-04-09T23:41:07.999Z,9.10
2023-04-09T23:43:35.964Z,10.80
2023-04-09T23:46:03.702Z,13.13
2023-04-09T23:48:31.435Z,9.57
2023-04-09T23:50:59.173Z,8.83
2023-04-09T23:53:28.244Z,10.10
2023-04-09T23:55:55.994Z,9.93
2023-04-09T23:58:23.740Z,9.27
